createdAt,value
2018-09-18T00:00:06.984Z,14.69
2018-09-18T00:01:07.042Z,14.71
2018-09-18T00:02:07.101Z,14.61
2018-09-18T00:03:07.162Z,14.60
2018-09-18T00:04:07.224Z,14.53
2018-09-18T00:05:07.283Z,14.52
2018-09-18T00:06:07.347Z,14.60
2018-09-18T00:07:07.405Z,14.53
2018-09-18T00:08:07.466Z,14.52
2018-09-18T00:09:07.525Z,14.48
2018-09-18T00:10:07.586Z,14.53
2018-09-18T00:11:07.646Z,14.61
2018-09-18T00:12:07.708Z,14.67
2018-09-18T00:13:07.768Z,14.67
2018-09-18T00:14:07.829Z,14.64
2018-09-18T00:15:07.888Z,14.61
2018-09-18T00:16:07.952Z,14.59
2018-09-18T00:17:08.009Z,14.67
2018-09-18T00:18:08.069Z,14.48
2018-09-18T00:19:08.133Z,14.46
2018-09-18T00:20:08.192Z,14.54
2018-09-18T00:21:08.250Z,14.49
2018-09-18T00:22:08.311Z,14.44
2018-09-18T00:23:08.622Z,14.53
2018-09-18T00:24:08.433Z,14.38
2018-09-18T00:25:08.493Z,14.46
2018-09-18T00:26:08.553Z,14.45
2018-09-18T00:27:08.615Z,14.45
2018-09-18T00:28:08.674Z,14.44
2018-09-18T00:29:08.734Z,14.45
2018-09-18T00:30:08.795Z,14.30
2018-09-18T00:31:08.855Z,14.38
2018-09-18T00:32:08.916Z,14.30
2018-09-18T00:33:08.974Z,14.41
2018-09-18T00:34:09.036Z,14.21
2018-09-18T00:35:09.096Z,14.26
2018-09-18T00:36:09.156Z,14.20
2018-09-18T00:37:09.216Z,14.34
2018-09-18T00:38:09.277Z,14.35
2018-09-18T00:39:09.338Z,14.29
2018-09-18T00:40:09.398Z,14.29
2018-09-18T00:41:09.459Z,14.17
2018-09-18T00:42:09.523Z,14.27
2018-09-18T00:43:09.578Z,14.21
2018-09-18T00:44:09.639Z,14.21
2018-09-18T00:45:09.699Z,14.23
2018-09-18T00:46:09.759Z,14.26
2018-09-18T00:47:09.820Z,14.23
2018-09-18T00:48:09.880Z,14.29
2018-09-18T00:49:09.939Z,14.19
2018-09-18T00:50:10.001Z,14.29
2018-09-18T00:51:10.064Z,14.24
2018-09-18T00:52:10.121Z,14.20
2018-09-18T00:53:10.180Z,14.19
2018-09-18T00:54:10.240Z,14.16
2018-09-18T00:55:10.301Z,14.04
2018-09-18T00:56:10.362Z,14.16
2018-09-18T00:57:10.420Z,14.09
2018-09-18T00:58:10.486Z,13.98
2018-09-18T00:59:10.542Z,14.02
2018-09-18T01:00:10.603Z,13.98
2018-09-18T01:01:10.664Z,13.99
2018-09-18T01:02:10.723Z,13.88
2018-09-18T01:03:10.782Z,13.91
2018-09-18T01:04:10.844Z,14.01
2018-09-18T01:05:10.902Z,13.96
2018-09-18T01:06:10.963Z,13.88
2018-09-18T01:07:11.024Z,13.86
2018-09-18T01:08:11.084Z,13.75
2018-09-18T01:09:11.142Z,13.91
2018-09-18T01:10:11.202Z,13.84
2018-09-18T01:11:11.264Z,13.90
2018-09-18T01:12:11.328Z,13.76
2018-09-18T01:13:11.384Z,13.81
2018-09-18T01:14:11.444Z,13.83
2018-09-18T01:15:11.504Z,13.73
2018-09-18T01:16:11.564Z,13.81
2018-09-18T01:17:11.626Z,13.86
2018-09-18T01:18:11.687Z,13.88
2018-09-18T01:19:11.748Z,13.84
2018-09-18T01:20:11.805Z,13.81
2018-09-18T01:21:11.864Z,13.62
2018-09-18T01:22:11.924Z,13.75
2018-09-18T01:23:11.984Z,13.66
2018-09-18T01:24:12.045Z,13.65
2018-09-18T01:25:12.104Z,13.66
2018-09-18T01:26:12.165Z,13.72
2018-09-18T01:27:12.225Z,13.76
2018-09-18T01:28:12.286Z,13.75
2018-09-18T01:29:12.352Z,13.68
2018-09-18T01:30:12.404Z,13.68
2018-09-18T01:31:12.466Z,13.79
2018-09-18T01:32:12.525Z,13.75
2018-09-18T01:33:12.585Z,13.75
2018-09-18T01:34:12.645Z,13.71
2018-09-18T01:35:12.706Z,13.79
2018-09-18T01:36:12.767Z,13.68
2018-09-18T01:37:12.828Z,13.72
2018-09-18T01:38:12.889Z,13.69
2018-09-18T01:39:12.945Z,13.84
2018-09-18T01:40:13.006Z,13.62
2018-09-18T01:41:13.065Z,13.62
2018-09-18T01:42:13.126Z,13.57
2018-09-18T01:43:13.185Z,13.62
2018-09-18T01:44:13.244Z,13.63
2018-09-18T01:45:13.304Z,13.57
2018-09-18T01:46:13.366Z,13.57
2018-09-18T01:47:13.426Z,13.62
2018-09-18T01:48:13.485Z,13.61
2018-09-18T01:49:13.544Z,13.61
2018-09-18T01:50:13.605Z,13.72
2018-09-18T01:51:13.667Z,13.62
2018-09-18T01:52:13.725Z,13.55
2018-09-18T01:53:13.783Z,13.39
2018-09-18T01:54:13.845Z,13.54
2018-09-18T01:55:13.905Z,13.54
2018-09-18T01:56:13.965Z,13.38
2018-09-18T01:57:14.024Z,13.44
2018-09-18T01:58:14.088Z,13.51
2018-09-18T01:59:14.144Z,13.39
2018-09-18T02:00:14.205Z,13.27
2018-09-18T02:01:14.268Z,13.25
2018-09-18T02:02:14.325Z,13.31
2018-09-18T02:03:14.384Z,13.25
2018-09-18T02:04:14.445Z,13.25
2018-09-18T02:05:14.504Z,13.04
2018-09-18T02:06:14.564Z,13.09
2018-09-18T02:07:14.624Z,13.06
2018-09-18T02:08:14.686Z,13.03
2018-09-18T02:09:14.743Z,12.99
2018-09-18T02:10:14.803Z,12.99
2018-09-18T02:11:14.863Z,13.04
2018-09-18T02:12:14.924Z,13.06
2018-09-18T02:13:14.984Z,12.98
2018-09-18T02:14:15.044Z,12.98
2018-09-18T02:15:15.103Z,12.88
2018-09-18T02:16:15.164Z,12.84
2018-09-18T02:17:15.222Z,12.81
2018-09-18T02:18:15.282Z,12.84
2018-09-18T02:19:15.342Z,12.69
2018-09-18T02:20:15.402Z,12.84
2018-09-18T02:21:15.461Z,12.88
2018-09-18T02:22:15.521Z,12.88
2018-09-18T02:23:15.581Z,12.87
2018-09-18T02:24:15.641Z,12.76
2018-09-18T02:25:15.700Z,12.76
2018-09-18T02:26:15.760Z,12.74
2018-09-18T02:27:15.820Z,12.71
2018-09-18T02:28:15.880Z,12.69
2018-09-18T02:29:15.938Z,12.71
2018-09-18T02:30:15.999Z,12.80
2018-09-18T02:31:16.060Z,12.69
2018-09-18T02:32:16.120Z,12.70
2018-09-18T02:33:16.180Z,12.71
2018-09-18T02:34:16.238Z,12.71
2018-09-18T02:35:16.299Z,12.70
2018-09-18T02:36:16.362Z,12.77
2018-09-18T02:37:16.424Z,12.95
2018-09-18T02:38:16.476Z,12.99
2018-09-18T02:39:16.539Z,12.94
2018-09-18T02:40:16.603Z,12.92
2018-09-18T02:41:16.654Z,12.84
2018-09-18T02:42:16.715Z,12.76
2018-09-18T02:43:16.775Z,12.76
2018-09-18T02:44:17.084Z,12.80
2018-09-18T02:45:16.893Z,12.70
2018-09-18T02:46:16.953Z,12.71
2018-09-18T02:47:17.013Z,12.73
2018-09-18T02:48:17.073Z,12.69
2018-09-18T02:49:17.131Z,12.71
2018-09-18T02:50:17.194Z,12.79
2018-09-18T02:51:17.250Z,12.87
2018-09-18T02:52:17.313Z,12.85
2018-09-18T02:53:17.369Z,12.81
2018-09-18T02:54:17.430Z,12.85
2018-09-18T02:55:17.490Z,12.71
2018-09-18T02:56:17.548Z,12.69
2018-09-18T02:57:17.608Z,12.69
2018-09-18T02:58:17.668Z,12.66
2018-09-18T02:59:17.727Z,12.76
2018-09-18T03:00:17.787Z,12.71
2018-09-18T03:01:17.846Z,12.71
2018-09-18T03:02:17.906Z,12.69
2018-09-18T03:03:17.968Z,12.69
2018-09-18T03:04:18.026Z,12.70
2018-09-18T03:05:18.084Z,12.70
2018-09-18T03:06:18.144Z,12.79
2018-09-18T03:07:18.204Z,12.85
2018-09-18T03:08:18.265Z,12.85
2018-09-18T03:09:18.323Z,12.63
2018-09-18T03:10:18.382Z,12.51
2018-09-18T03:11:18.454Z,12.51
2018-09-18T03:12:18.502Z,12.54
2018-09-18T03:13:18.563Z,12.69
2018-09-18T03:14:18.622Z,12.62
2018-09-18T03:15:18.684Z,12.56
2018-09-18T03:16:18.740Z,12.61
2018-09-18T03:17:18.799Z,12.58
2018-09-18T03:18:18.861Z,12.41
2018-09-18T03:19:18.918Z,12.46
2018-09-18T03:20:18.978Z,12.49
2018-09-18T03:21:19.040Z,12.44
2018-09-18T03:22:19.096Z,12.55
2018-09-18T03:23:19.158Z,12.56
2018-09-18T03:24:19.469Z,12.62
2018-09-18T03:25:19.275Z,12.52
2018-09-18T03:26:19.335Z,12.55
2018-09-18T03:27:19.430Z,12.43
2018-09-18T03:28:19.456Z,12.54
2018-09-18T03:29:19.513Z,12.40
2018-09-18T03:30:19.572Z,12.49
2018-09-18T03:31:19.633Z,12.62
2018-09-18T03:32:19.693Z,12.49
2018-09-18T03:33:19.750Z,12.61
2018-09-18T03:34:19.811Z,12.52
2018-09-18T03:35:19.873Z,12.56
2018-09-18T03:36:19.932Z,12.41
2018-09-18T03:37:19.989Z,12.48
2018-09-18T03:38:20.048Z,12.49
2018-09-18T03:39:20.109Z,12.37
2018-09-18T03:40:20.168Z,12.48
2018-09-18T03:41:20.225Z,12.30
2018-09-18T03:42:20.289Z,12.37
2018-09-18T03:43:20.346Z,12.30
2018-09-18T03:44:20.407Z,12.22
2018-09-18T03:45:20.464Z,12.44
2018-09-18T03:46:20.527Z,12.46
2018-09-18T03:47:20.584Z,12.41
2018-09-18T03:48:20.644Z,12.34
2018-09-18T03:49:20.953Z,12.31
2018-09-18T03:50:20.762Z,12.26
2018-09-18T03:51:20.821Z,12.31
2018-09-18T03:52:20.881Z,12.22
2018-09-18T03:53:20.939Z,12.16
2018-09-18T03:54:21.004Z,12.22
2018-09-18T03:55:21.060Z,12.19
2018-09-18T03:56:21.118Z,12.08
2018-09-18T03:57:21.207Z,12.22
2018-09-18T03:58:21.237Z,12.13
2018-09-18T03:59:21.297Z,12.21
2018-09-18T04:00:21.357Z,12.21
2018-09-18T04:01:21.415Z,12.38
2018-09-18T04:02:21.474Z,12.30
2018-09-18T04:03:21.534Z,12.23
2018-09-18T04:04:21.595Z,12.23
2018-09-18T04:05:21.654Z,12.19
2018-09-18T04:06:21.713Z,12.21
2018-09-18T04:07:21.773Z,12.22
2018-09-18T04:08:21.832Z,12.11
2018-09-18T04:09:21.892Z,12.13
2018-09-18T04:10:21.950Z,12.13
2018-09-18T04:11:22.010Z,12.07
2018-09-18T04:12:22.069Z,12.12
2018-09-18T04:13:22.127Z,12.26
2018-09-18T04:14:22.189Z,12.11
2018-09-18T04:15:22.247Z,12.13
2018-09-18T04:16:22.305Z,12.11
2018-09-18T04:17:22.372Z,12.05
2018-09-18T04:18:22.424Z,12.11
2018-09-18T04:19:22.486Z,12.12
2018-09-18T04:20:22.544Z,12.15
2018-09-18T04:21:22.602Z,12.22
2018-09-18T04:22:22.663Z,12.11
2018-09-18T04:23:22.720Z,12.08
2018-09-18T04:24:22.782Z,12.16
2018-09-18T04:25:22.839Z,12.13
2018-09-18T04:26:22.899Z,12.16
2018-09-18T04:27:22.959Z,11.98
2018-09-18T04:28:23.017Z,12.15
2018-09-18T04:29:23.078Z,12.11
2018-09-18T04:30:23.138Z,12.23
2018-09-18T04:31:23.196Z,12.33
2018-09-18T04:32:23.262Z,12.34
2018-09-18T04:33:23.314Z,12.33
2018-09-18T04:34:23.375Z,12.30
2018-09-18T04:35:23.435Z,12.23
2018-09-18T04:36:23.494Z,12.16
2018-09-18T04:37:23.552Z,12.21
2018-09-18T04:38:23.610Z,12.25
2018-09-18T04:39:23.671Z,12.07
2018-09-18T04:40:23.730Z,12.03
2018-09-18T04:41:23.790Z,11.98
2018-09-18T04:42:23.851Z,12.07
2018-09-18T04:43:23.908Z,12.04
2018-09-18T04:44:23.968Z,11.88
2018-09-18T04:45:24.028Z,11.87
2018-09-18T04:46:24.087Z,12.00
2018-09-18T04:47:24.147Z,11.98
2018-09-18T04:48:24.206Z,12.00
2018-09-18T04:49:24.265Z,12.00
2018-09-18T04:50:24.322Z,12.16
2018-09-18T04:51:24.383Z,12.13
2018-09-18T04:52:24.445Z,12.15
2018-09-18T04:53:24.501Z,12.13
2018-09-18T04:54:24.560Z,12.12
2018-09-18T04:55:24.630Z,12.03
2018-09-18T04:56:24.679Z,11.90
2018-09-18T04:57:24.738Z,11.87
2018-09-18T04:58:24.797Z,12.05
2018-09-18T04:59:24.856Z,12.00
2018-09-18T05:00:24.916Z,12.04
2018-09-18T05:01:24.975Z,12.01
2018-09-18T05:02:25.035Z,11.97
2018-09-18T05:03:25.094Z,11.81
2018-09-18T05:04:25.166Z,11.79
2018-09-18T05:05:25.221Z,11.78
2018-09-18T05:06:25.271Z,11.79
2018-09-18T05:07:25.331Z,11.75
2018-09-18T05:08:25.391Z,11.79
2018-09-18T05:09:25.512Z,11.75
2018-09-18T05:10:25.508Z,11.67
2018-09-18T05:11:25.569Z,11.78
2018-09-18T05:12:25.627Z,11.87
2018-09-18T05:13:25.686Z,11.82
2018-09-18T05:14:25.755Z,11.84
2018-09-18T05:15:25.805Z,11.94
2018-09-18T05:16:25.864Z,11.87
2018-09-18T05:17:25.926Z,11.96
2018-09-18T05:18:25.998Z,11.87
2018-09-18T05:19:26.042Z,11.77
2018-09-18T05:20:26.100Z,11.81
2018-09-18T05:21:26.157Z,11.87
2018-09-18T05:22:26.217Z,12.01
2018-09-18T05:23:26.278Z,12.01
2018-09-18T05:24:26.337Z,11.93
2018-09-18T05:25:26.414Z,12.00
2018-09-18T05:26:26.455Z,12.01
2018-09-18T05:27:26.514Z,11.88
2018-09-18T05:28:26.583Z,11.96
2018-09-18T05:29:26.634Z,12.00
2018-09-18T05:30:26.694Z,12.03
2018-09-18T05:31:26.751Z,11.88
2018-09-18T05:32:26.812Z,11.79
2018-09-18T05:33:26.869Z,11.84
2018-09-18T05:34:26.928Z,11.93
2018-09-18T05:35:26.991Z,11.84
2018-09-18T05:36:27.047Z,11.93
2018-09-18T05:37:27.107Z,11.85
2018-09-18T05:38:27.165Z,11.78
2018-09-18T05:39:27.225Z,11.78
2018-09-18T05:40:27.310Z,11.78
2018-09-18T05:41:27.342Z,11.79
2018-09-18T05:42:27.409Z,11.82
2018-09-18T05:43:27.461Z,11.72
2018-09-18T05:44:27.530Z,11.64
2018-09-18T05:45:27.580Z,11.60
2018-09-18T05:46:27.639Z,11.57
2018-09-18T05:47:27.698Z,11.56
2018-09-18T05:48:27.758Z,11.57
2018-09-18T05:49:27.816Z,11.60
2018-09-18T05:50:27.875Z,11.77
2018-09-18T05:51:27.935Z,11.82
2018-09-18T05:52:27.997Z,11.85
2018-09-18T05:53:28.052Z,11.81
2018-09-18T05:54:28.112Z,11.85
2018-09-18T05:55:28.182Z,11.94
2018-09-18T05:56:28.231Z,11.78
2018-09-18T05:57:28.289Z,11.66
2018-09-18T05:58:28.348Z,11.63
2018-09-18T05:59:28.408Z,11.64
2018-09-18T06:00:28.468Z,11.67
2018-09-18T06:01:28.527Z,11.62
2018-09-18T06:02:28.585Z,11.64
2018-09-18T06:03:28.649Z,11.62
2018-09-18T06:04:28.704Z,11.64
2018-09-18T06:05:28.763Z,11.77
2018-09-18T06:06:28.820Z,11.78
2018-09-18T06:07:28.894Z,12.03
2018-09-18T06:08:28.944Z,12.29
2018-09-18T06:09:29.000Z,12.26
2018-09-18T06:10:29.058Z,12.33
2018-09-18T06:11:29.118Z,12.49
2018-09-18T06:12:29.180Z,12.54
2018-09-18T06:13:29.237Z,12.56
2018-09-18T06:14:29.299Z,12.55
2018-09-18T06:15:29.353Z,12.66
2018-09-18T06:16:29.413Z,12.54
2018-09-18T06:17:29.471Z,12.49
2018-09-18T06:18:29.533Z,12.55
2018-09-18T06:19:29.592Z,12.59
2018-09-18T06:20:29.650Z,12.61
2018-09-18T06:21:29.710Z,12.59
2018-09-18T06:22:29.769Z,12.63
2018-09-18T06:23:29.828Z,12.58
2018-09-18T06:24:29.888Z,12.66
2018-09-18T06:25:29.947Z,12.77
2018-09-18T06:26:30.315Z,12.69
2018-09-18T06:27:30.067Z,12.62
2018-09-18T06:28:30.125Z,12.61
2018-09-18T06:29:30.185Z,12.58
2018-09-18T06:30:30.244Z,12.54
2018-09-18T06:31:30.303Z,12.59
2018-09-18T06:32:30.364Z,12.59
2018-09-18T06:33:30.425Z,12.74
2018-09-18T06:34:30.481Z,12.85
2018-09-18T06:35:30.541Z,12.88
2018-09-18T06:36:30.601Z,13.09
2018-09-18T06:37:30.663Z,13.24
2018-09-18T06:38:30.720Z,13.32
2018-09-18T06:39:30.783Z,13.21
2018-09-18T06:40:30.839Z,13.29
2018-09-18T06:41:30.898Z,13.25
2018-09-18T06:42:30.958Z,13.41
2018-09-18T06:43:31.018Z,13.36
2018-09-18T06:44:31.422Z,13.41
2018-09-18T06:45:31.202Z,13.50
2018-09-18T06:46:31.196Z,13.51
2018-09-18T06:47:31.256Z,13.55
2018-09-18T06:48:31.316Z,13.57
2018-09-18T06:49:31.376Z,13.62
2018-09-18T06:50:31.772Z,13.54
2018-09-18T06:51:31.496Z,13.62
2018-09-18T06:52:31.559Z,13.63
2018-09-18T06:53:31.615Z,13.68
2018-09-18T06:54:31.690Z,13.69
2018-09-18T06:55:31.747Z,13.65
2018-09-18T06:56:31.796Z,13.81
2018-09-18T06:57:31.858Z,13.79
2018-09-18T06:58:32.479Z,13.84
2018-09-18T06:59:31.978Z,13.88
2018-09-18T07:00:32.037Z,13.86
2018-09-18T07:01:32.099Z,13.94
2018-09-18T07:02:32.159Z,14.08
2018-09-18T07:03:32.218Z,14.09
2018-09-18T07:04:32.279Z,14.21
2018-09-18T07:05:32.353Z,14.19
2018-09-18T07:06:32.398Z,14.26
2018-09-18T07:07:32.459Z,14.30
2018-09-18T07:08:32.521Z,14.34
2018-09-18T07:09:32.581Z,14.46
2018-09-18T07:10:32.641Z,14.54
2018-09-18T07:11:32.701Z,14.53
2018-09-18T07:12:32.763Z,14.45
2018-09-18T07:13:32.822Z,14.52
2018-09-18T07:14:32.884Z,14.53
2018-09-18T07:15:33.257Z,14.60
2018-09-18T07:16:33.007Z,14.64
2018-09-18T07:17:33.071Z,14.67
2018-09-18T07:18:33.127Z,14.75
2018-09-18T07:19:33.186Z,14.75
2018-09-18T07:20:33.248Z,14.83
2018-09-18T07:21:33.308Z,14.93
2018-09-18T07:22:33.370Z,14.97
2018-09-18T07:23:33.431Z,14.98
2018-09-18T07:24:33.491Z,14.98
2018-09-18T07:25:33.552Z,15.05
2018-09-18T07:26:33.613Z,15.03
2018-09-18T07:27:33.678Z,15.05
2018-09-18T07:28:33.735Z,15.25
2018-09-18T07:29:33.796Z,15.16
2018-09-18T07:30:33.857Z,15.35
2018-09-18T07:31:33.918Z,15.38
2018-09-18T07:32:33.980Z,15.40
2018-09-18T07:33:34.040Z,15.48
2018-09-18T07:34:34.100Z,15.48
2018-09-18T07:35:34.161Z,15.53
2018-09-18T07:36:34.223Z,15.52
2018-09-18T07:37:34.284Z,15.52
2018-09-18T07:38:34.345Z,15.64
2018-09-18T07:39:34.408Z,15.64
2018-09-18T07:40:34.468Z,15.80
2018-09-18T07:41:34.528Z,15.81
2018-09-18T07:42:34.590Z,15.91
2018-09-18T07:43:34.651Z,15.95
2018-09-18T07:44:34.713Z,15.93
2018-09-18T07:45:34.781Z,16.06
2018-09-18T07:46:34.835Z,16.07
2018-09-18T07:47:34.897Z,15.99
2018-09-18T07:48:34.958Z,16.16
2018-09-18T07:49:35.022Z,16.18
2018-09-18T07:50:35.081Z,16.23
2018-09-18T07:51:35.144Z,16.25
2018-09-18T07:52:35.207Z,16.25
2018-09-18T07:53:35.263Z,16.29
2018-09-18T07:54:35.327Z,16.42
2018-09-18T07:55:35.389Z,16.34
2018-09-18T07:56:36.167Z,16.36
2018-09-18T07:57:35.512Z,16.32
2018-09-18T07:58:35.570Z,16.37
2018-09-18T07:59:35.635Z,16.45
2018-09-18T08:00:35.696Z,16.47
2018-09-18T08:01:35.756Z,16.52
2018-09-18T08:02:35.818Z,16.65
2018-09-18T08:03:35.885Z,16.66
2018-09-18T08:04:38.593Z,16.78
2018-09-18T08:05:36.453Z,16.82
2018-09-18T08:06:36.064Z,16.95
2018-09-18T08:07:36.125Z,16.96
2018-09-18T08:08:36.591Z,17.02
2018-09-18T08:09:36.451Z,17.03
2018-09-18T08:10:36.311Z,17.17
2018-09-18T08:11:36.372Z,17.10
2018-09-18T08:12:36.435Z,17.25
2018-09-18T08:13:36.855Z,17.28
2018-09-18T08:14:36.557Z,17.33
2018-09-18T08:15:36.618Z,17.49
2018-09-18T08:16:36.681Z,17.51
2018-09-18T08:17:36.741Z,17.47
2018-09-18T08:18:36.804Z,17.62
2018-09-18T08:19:37.073Z,17.68
2018-09-18T08:20:36.928Z,17.65
2018-09-18T08:21:36.988Z,17.74
2018-09-18T08:22:37.050Z,17.80
2018-09-18T08:23:37.118Z,17.89
2018-09-18T08:24:37.175Z,17.96
2018-09-18T08:25:37.327Z,17.94
2018-09-18T08:26:37.298Z,17.91
2018-09-18T08:27:37.361Z,18.01
2018-09-18T08:28:37.423Z,18.10
2018-09-18T08:29:37.484Z,18.14
2018-09-18T08:30:37.546Z,18.21
2018-09-18T08:31:37.641Z,18.21
2018-09-18T08:32:37.754Z,18.29
2018-09-18T08:33:37.733Z,18.32
2018-09-18T08:34:37.795Z,18.46
2018-09-18T08:35:40.481Z,18.47
2018-09-18T08:36:37.920Z,18.62
2018-09-18T08:37:37.981Z,18.62
2018-09-18T08:38:38.044Z,18.72
2018-09-18T08:39:38.172Z,18.71
2018-09-18T08:40:38.170Z,18.79
2018-09-18T08:41:38.234Z,18.91
2018-09-18T08:42:38.301Z,18.96
2018-09-18T08:43:38.357Z,19.13
2018-09-18T08:44:38.439Z,19.25
2018-09-18T08:45:38.530Z,19.32
2018-09-18T08:46:38.554Z,19.45
2018-09-18T08:47:38.606Z,19.32
2018-09-18T08:48:38.697Z,19.40
2018-09-18T08:49:38.781Z,19.49
2018-09-18T08:50:38.793Z,19.55
2018-09-18T08:51:38.930Z,19.72
2018-09-18T08:52:38.953Z,19.70
2018-09-18T08:53:38.986Z,19.78
2018-09-18T08:54:39.078Z,19.87
2018-09-18T08:55:39.125Z,19.85
2018-09-18T08:56:39.201Z,20.04
2018-09-18T08:57:39.240Z,20.05
2018-09-18T08:58:39.302Z,20.22
2018-09-18T08:59:39.357Z,20.33
2018-09-18T09:00:39.422Z,20.44
2018-09-18T09:01:39.485Z,20.51
2018-09-18T09:02:39.949Z,20.57
2018-09-18T09:03:39.610Z,20.51
2018-09-18T09:04:39.698Z,20.57
2018-09-18T09:05:39.769Z,20.61
2018-09-18T09:06:39.855Z,20.68
2018-09-18T09:07:40.763Z,20.78
2018-09-18T09:08:40.055Z,20.85
2018-09-18T09:09:39.993Z,20.90
2018-09-18T09:10:40.101Z,20.93
2018-09-18T09:11:40.116Z,21.00
2018-09-18T09:12:40.182Z,21.18
2018-09-18T09:13:40.242Z,21.37
2018-09-18T09:14:40.318Z,21.45
2018-09-18T09:15:40.464Z,21.43
2018-09-18T09:16:40.437Z,21.42
2018-09-18T09:17:40.512Z,21.63
2018-09-18T09:18:40.561Z,21.56
2018-09-18T09:19:40.650Z,21.73
2018-09-18T09:20:40.718Z,21.77
2018-09-18T09:21:40.752Z,21.86
2018-09-18T09:22:40.822Z,21.98
2018-09-18T09:23:40.905Z,22.01
2018-09-18T09:24:40.959Z,22.08
2018-09-18T09:25:41.007Z,22.05
2018-09-18T09:26:41.134Z,22.12
2018-09-18T09:27:41.740Z,22.20
2018-09-18T09:28:41.199Z,22.36
2018-09-18T09:29:41.324Z,22.49
2018-09-18T09:30:41.329Z,22.51
2018-09-18T09:31:41.391Z,22.54
2018-09-18T09:32:41.488Z,22.56
2018-09-18T09:33:41.521Z,22.63
2018-09-18T09:34:41.609Z,22.69
2018-09-18T09:35:41.648Z,22.78
2018-09-18T09:36:41.746Z,22.88
2018-09-18T09:37:41.806Z,22.97
2018-09-18T09:38:41.866Z,23.12
2018-09-18T09:39:41.906Z,23.22
2018-09-18T09:40:41.970Z,23.38
2018-09-18T09:41:42.035Z,23.47
2018-09-18T09:42:42.102Z,23.81
2018-09-18T09:43:42.191Z,24.11
2018-09-18T09:44:42.229Z,24.44
2018-09-18T09:45:42.293Z,24.56
2018-09-18T09:46:42.360Z,24.94
2018-09-18T09:47:42.426Z,25.19
2018-09-18T09:48:42.489Z,25.31
2018-09-18T09:49:42.553Z,25.45
2018-09-18T09:50:42.619Z,25.57
2018-09-18T09:51:42.748Z,25.72
2018-09-18T09:52:42.751Z,25.96
2018-09-18T09:53:42.814Z,25.98
2018-09-18T09:54:42.881Z,26.04
2018-09-18T09:55:42.945Z,26.09
2018-09-18T09:56:43.030Z,26.24
2018-09-18T09:57:43.751Z,26.41
2018-09-18T09:58:43.780Z,26.56
2018-09-18T09:59:43.208Z,26.61
2018-09-18T10:00:43.273Z,26.72
2018-09-18T10:01:43.339Z,26.81
2018-09-18T10:02:43.438Z,26.78
2018-09-18T10:03:43.471Z,26.68
2018-09-18T10:04:43.537Z,26.81
2018-09-18T10:05:43.606Z,26.78
2018-09-18T10:06:43.668Z,26.73
2018-09-18T10:07:43.735Z,26.83
2018-09-18T10:08:43.801Z,26.69
2018-09-18T10:09:43.866Z,26.61
2018-09-18T10:10:44.055Z,26.72
2018-09-18T10:11:43.999Z,26.84
2018-09-18T10:12:44.072Z,26.76
2018-09-18T10:13:44.132Z,27.24
2018-09-18T10:14:44.199Z,26.91
2018-09-18T10:15:44.289Z,26.90
2018-09-18T10:16:44.335Z,26.97
2018-09-18T10:17:44.510Z,27.23
2018-09-18T10:18:44.465Z,27.40
2018-09-18T10:19:44.530Z,27.35
2018-09-18T10:20:44.596Z,27.31
2018-09-18T10:21:44.662Z,27.28
2018-09-18T10:22:44.729Z,27.28
2018-09-18T10:23:44.821Z,27.11
2018-09-18T10:24:44.863Z,27.11
2018-09-18T10:25:44.928Z,27.16
2018-09-18T10:26:45.022Z,27.28
2018-09-18T10:27:45.062Z,27.49
2018-09-18T10:28:45.129Z,27.46
2018-09-18T10:29:45.204Z,27.46
2018-09-18T10:30:45.276Z,27.71
2018-09-18T10:31:45.343Z,27.86
2018-09-18T10:32:45.490Z,27.83
2018-09-18T10:33:45.482Z,27.74
2018-09-18T10:34:45.528Z,28.03
2018-09-18T10:35:45.595Z,28.13
2018-09-18T10:36:45.662Z,28.08
2018-09-18T10:37:45.739Z,28.06
2018-09-18T10:38:45.810Z,28.30
2018-09-18T10:39:45.870Z,28.36
2018-09-18T10:40:45.989Z,28.30
2018-09-18T10:41:46.003Z,28.33
2018-09-18T10:42:46.064Z,28.48
2018-09-18T10:43:46.153Z,28.50
2018-09-18T10:44:46.205Z,28.46
2018-09-18T10:45:46.265Z,28.28
2018-09-18T10:46:46.332Z,28.28
2018-09-18T10:47:46.405Z,28.48
2018-09-18T10:48:46.525Z,28.58
2018-09-18T10:49:46.536Z,28.79
2018-09-18T10:50:46.603Z,28.94
2018-09-18T10:51:46.671Z,29.30
2018-09-18T10:52:46.750Z,29.41
2018-09-18T10:53:46.808Z,29.60
2018-09-18T10:54:46.877Z,29.73
2018-09-18T10:55:46.985Z,30.15
2018-09-18T10:56:47.016Z,30.32
2018-09-18T10:57:47.086Z,30.93
2018-09-18T10:58:47.154Z,31.22
2018-09-18T10:59:47.234Z,31.42
2018-09-18T11:00:47.322Z,31.53
2018-09-18T11:01:47.444Z,31.45
2018-09-18T11:02:47.436Z,31.52
2018-09-18T11:03:47.512Z,31.52
2018-09-18T11:04:47.586Z,31.22
2018-09-18T11:05:47.672Z,31.25
2018-09-18T11:06:47.717Z,31.09
2018-09-18T11:07:47.900Z,31.53
2018-09-18T11:08:47.884Z,31.50
2018-09-18T11:09:47.977Z,31.52
2018-09-18T11:10:48.000Z,31.49
2018-09-18T11:11:48.110Z,31.53
2018-09-18T11:12:48.143Z,31.85
2018-09-18T11:13:48.629Z,31.45
2018-09-18T11:14:48.328Z,31.07
2018-09-18T11:15:48.404Z,31.03
2018-09-18T11:16:48.428Z,31.42
2018-09-18T11:17:48.562Z,31.40
2018-09-18T11:18:48.570Z,31.84
2018-09-18T11:19:48.666Z,31.47
2018-09-18T11:20:48.747Z,31.68
2018-09-18T11:21:48.918Z,32.39
2018-09-18T11:22:48.862Z,32.54
2018-09-18T11:23:48.934Z,32.31
2018-09-18T11:24:49.105Z,32.65
2018-09-18T11:25:49.100Z,32.69
2018-09-18T11:26:49.157Z,32.43
2018-09-18T11:27:49.215Z,32.40
2018-09-18T11:28:49.291Z,32.81
2018-09-18T11:29:49.359Z,33.33
2018-09-18T11:30:49.439Z,33.41
2018-09-18T11:31:49.503Z,33.31
2018-09-18T11:32:49.744Z,32.65
2018-09-18T11:33:49.811Z,33.02
2018-09-18T11:34:50.071Z,32.98
2018-09-18T11:35:49.830Z,32.88
2018-09-18T11:36:49.878Z,32.88
2018-09-18T11:37:49.940Z,33.06
2018-09-18T11:38:50.010Z,33.24
2018-09-18T11:39:50.083Z,33.34
2018-09-18T11:40:50.157Z,33.50
2018-09-18T11:41:50.229Z,33.52
2018-09-18T11:42:50.301Z,33.38
2018-09-18T11:43:50.374Z,33.65
2018-09-18T11:44:50.448Z,32.96
2018-09-18T11:45:50.733Z,33.00
2018-09-18T11:46:50.718Z,33.75
2018-09-18T11:47:50.666Z,34.03
2018-09-18T11:48:50.739Z,34.19
2018-09-18T11:49:50.811Z,34.53
2018-09-18T11:50:50.887Z,34.52
2018-09-18T11:51:50.958Z,34.56
2018-09-18T11:52:51.142Z,34.61
2018-09-18T11:53:51.103Z,34.14
2018-09-18T11:54:51.428Z,34.33
2018-09-18T11:55:51.258Z,34.14
2018-09-18T11:56:51.373Z,33.82
2018-09-18T11:57:51.398Z,33.63
2018-09-18T11:58:51.471Z,34.01
2018-09-18T11:59:51.552Z,34.31
2018-09-18T12:00:51.619Z,34.50
2018-09-18T12:01:51.693Z,34.33
2018-09-18T12:02:51.851Z,34.30
2018-09-18T12:03:51.839Z,34.56
2018-09-18T12:04:51.919Z,34.12
2018-09-18T12:05:51.988Z,33.59
2018-09-18T12:06:52.059Z,32.99
2018-09-18T12:07:52.134Z,32.98
2018-09-18T12:08:52.281Z,33.33
2018-09-18T12:09:52.284Z,33.87
2018-09-18T12:10:52.354Z,33.79
2018-09-18T12:11:52.428Z,33.38
2018-09-18T12:12:52.501Z,33.96
2018-09-18T12:13:52.577Z,34.15
2018-09-18T12:14:52.647Z,34.09
2018-09-18T12:15:52.724Z,34.38
2018-09-18T12:16:52.803Z,34.03
2018-09-18T12:17:52.868Z,34.50
2018-09-18T12:18:52.942Z,34.99
2018-09-18T12:19:53.017Z,34.55
2018-09-18T12:20:53.092Z,33.44
2018-09-18T12:21:53.178Z,33.90
2018-09-18T12:22:53.366Z,33.34
2018-09-18T12:23:53.310Z,33.75
2018-09-18T12:24:53.384Z,34.33
2018-09-18T12:25:53.476Z,34.12
2018-09-18T12:26:53.530Z,34.40
2018-09-18T12:27:53.604Z,33.93
2018-09-18T12:28:53.699Z,34.19
2018-09-18T12:29:53.750Z,34.49
2018-09-18T12:30:53.823Z,34.19
2018-09-18T12:31:53.896Z,34.33
2018-09-18T12:32:53.971Z,33.44
2018-09-18T12:33:54.044Z,33.40
2018-09-18T12:34:54.118Z,33.43
2018-09-18T12:35:54.934Z,33.38
2018-09-18T12:36:54.265Z,33.41
2018-09-18T12:37:54.339Z,33.60
2018-09-18T12:38:54.411Z,33.87
2018-09-18T12:39:54.485Z,33.99
2018-09-18T12:40:54.558Z,33.14
2018-09-18T12:41:54.661Z,33.35
2018-09-18T12:42:54.704Z,33.43
2018-09-18T12:43:54.777Z,33.18
2018-09-18T12:44:54.851Z,33.63
2018-09-18T12:45:54.923Z,33.56
2018-09-18T12:46:55.488Z,33.22
2018-09-18T12:47:55.108Z,33.78
2018-09-18T12:48:55.165Z,33.68
2018-09-18T12:49:55.526Z,33.79
2018-09-18T12:50:55.384Z,33.72
2018-09-18T12:51:56.012Z,33.43
2018-09-18T12:52:55.437Z,33.99